createdAt,value
2023-01-09T00:00:53.445Z,0.10
2023-01-09T00:03:20.037Z,0.10
2023-01-09T00:05:46.656Z,0.10
2023-01-09T00:08:13.205Z,0.20
2023-01-09T00:10:40.032Z,0.10
2023-01-09T00:13:06.630Z,0.22
2023-01-09T00:15:33.215Z,0.13
2023-01-09T00:17:59.742Z,0.15
2023-01-09T00:20:26.272Z,0.15
2023-01-09T00:22:52.826Z,0.30
2023-01-09T00:25:19.348Z,0.30
2023-01-09T00:27:45.956Z,0.28
2023-01-09T00:30:12.753Z,0.40
2023-01-09T00:32:40.024Z,0.30
2023-01-09T00:35:09.775Z,0.40
2023-01-09T00:37:36.288Z,0.40
2023-01-09T00:40:02.864Z,0.40
2023-01-09T00:42:32.583Z,0.22
2023-01-09T00:45:04.107Z,0.30
2023-01-09T00:47:40.034Z,0.50
2023-01-09T00:50:11.302Z,0.60
2023-01-09T00:52:39.553Z,0.60
2023-01-09T00:55:07.156Z,0.52
2023-01-09T00:57:33.731Z,0.50
2023-01-09T01:00:01.036Z,0.43
2023-01-09T01:02:27.676Z,0.60
2023-01-09T01:04:54.251Z,0.75
2023-01-09T01:07:20.863Z,0.40
2023-01-09T01:09:47.475Z,0.38
2023-01-09T01:12:14.167Z,0.50
2023-01-09T01:14:40.759Z,0.40
2023-01-09T01:17:08.030Z,0.40
2023-01-09T01:19:35.339Z,0.55
2023-01-09T01:22:02.487Z,0.30
2023-01-09T01:24:29.033Z,0.40
2023-01-09T01:26:55.635Z,1.27
2023-01-09T01:29:22.204Z,0.60
2023-01-09T01:31:48.811Z,0.50
2023-01-09T01:34:15.281Z,0.40
2023-01-09T01:36:41.891Z,0.35
2023-01-09T01:39:08.386Z,0.60
2023-01-09T01:41:34.962Z,0.30
2023-01-09T01:44:04.105Z,0.63
2023-01-09T01:46:32.415Z,0.35
2023-01-09T01:49:12.919Z,0.65
2023-01-09T01:51:46.146Z,0.63
2023-01-09T01:54:17.991Z,0.85
2023-01-09T01:56:48.548Z,0.70
2023-01-09T01:59:40.925Z,0.68
2023-01-09T02:02:08.846Z,0.70
2023-01-09T02:04:37.674Z,0.70
2023-01-09T02:07:08.532Z,0.80
2023-01-09T02:09:36.147Z,1.00
2023-01-09T02:12:14.260Z,0.60
2023-01-09T02:14:40.767Z,0.50
2023-01-09T02:17:30.245Z,0.63
2023-01-09T02:20:25.731Z,0.75
2023-01-09T02:23:00.330Z,0.70
2023-01-09T02:25:54.274Z,0.80
2023-01-09T02:28:39.227Z,0.43
2023-01-09T02:31:09.480Z,0.80
2023-01-09T02:33:52.783Z,0.70
2023-01-09T02:36:39.191Z,1.00
2023-01-09T02:39:14.793Z,1.13
2023-01-09T02:42:17.398Z,0.80
2023-01-09T02:44:43.962Z,0.90
2023-01-09T02:47:16.820Z,1.55
2023-01-09T02:49:49.183Z,1.17
2023-01-09T02:52:46.866Z,1.15
2023-01-09T02:55:40.238Z,0.98
2023-01-09T02:58:42.878Z,0.80
2023-01-09T03:01:34.106Z,0.80
2023-01-09T03:04:26.458Z,0.93
2023-01-09T03:07:02.519Z,0.85
2023-01-09T03:12:07.084Z,0.70
2023-01-09T03:14:35.276Z,0.73
2023-01-09T03:17:07.351Z,0.63
2023-01-09T03:19:35.593Z,0.88
2023-01-09T03:22:02.759Z,0.73
2023-01-09T03:24:29.341Z,0.80
2023-01-09T03:26:56.010Z,0.50
2023-01-09T03:29:22.617Z,0.45
2023-01-09T03:31:49.298Z,0.60
2023-01-09T03:34:15.871Z,0.88
2023-01-09T03:36:42.421Z,0.63
2023-01-09T03:39:08.930Z,0.93
2023-01-09T03:41:35.412Z,1.00
2023-01-09T03:44:01.993Z,0.70
2023-01-09T03:46:28.513Z,0.80
2023-01-09T03:48:55.042Z,0.85
2023-01-09T03:51:21.531Z,0.75
2023-01-09T03:53:48.088Z,0.45
2023-01-09T03:56:14.653Z,0.90
2023-01-09T03:58:41.239Z,1.02
2023-01-09T04:01:07.981Z,0.70
2023-01-09T04:03:34.635Z,1.15
2023-01-09T04:06:01.146Z,0.30
2023-01-09T04:08:27.660Z,0.52
2023-01-09T04:10:54.242Z,0.30
2023-01-09T04:13:20.748Z,0.65
2023-01-09T04:15:47.303Z,0.75
2023-01-09T04:18:13.906Z,0.80
2023-01-09T04:20:40.455Z,0.52
2023-01-09T04:23:07.024Z,0.43
2023-01-09T04:25:34.018Z,0.55
2023-01-09T04:28:00.642Z,0.70
2023-01-09T04:30:27.211Z,0.70
2023-01-09T04:32:53.682Z,0.40
2023-01-09T04:35:20.501Z,0.82
2023-01-09T04:37:47.225Z,0.75
2023-01-09T04:40:14.069Z,1.13
2023-01-09T04:42:41.026Z,0.90
2023-01-09T04:45:09.657Z,0.50
2023-01-09T04:47:36.225Z,1.48
2023-01-09T04:50:03.194Z,0.57
2023-01-09T04:52:30.142Z,0.73
2023-01-09T04:54:56.646Z,0.98
2023-01-09T04:57:23.325Z,0.55
2023-01-09T04:59:50.735Z,0.57
2023-01-09T05:02:18.129Z,0.70
2023-01-09T05:04:44.619Z,0.60
2023-01-09T05:07:11.171Z,0.50
2023-01-09T05:09:37.684Z,0.32
2023-01-09T05:12:04.438Z,1.35
2023-01-09T05:14:31.025Z,0.80
2023-01-09T05:16:57.581Z,0.60
2023-01-09T05:19:24.090Z,0.95
2023-01-09T05:21:50.643Z,0.82
2023-01-09T05:24:17.231Z,0.80
2023-01-09T05:26:43.763Z,0.55
2023-01-09T05:29:10.475Z,0.47
2023-01-09T05:31:37.105Z,0.95
2023-01-09T05:34:03.738Z,0.68
2023-01-09T05:36:30.284Z,0.90
2023-01-09T05:38:56.754Z,1.10
2023-01-09T05:41:24.304Z,0.82
2023-01-09T05:43:50.909Z,0.47
2023-01-09T05:46:17.438Z,0.57
2023-01-09T05:48:43.950Z,0.63
2023-01-09T05:51:10.978Z,0.60
2023-01-09T05:53:37.606Z,1.00
2023-01-09T05:56:04.202Z,0.82
2023-01-09T05:58:30.910Z,0.75
2023-01-09T06:00:58.451Z,0.47
2023-01-09T06:03:25.020Z,0.70
2023-01-09T06:05:51.569Z,0.52
2023-01-09T06:08:18.086Z,1.35
2023-01-09T06:10:46.115Z,0.80
2023-01-09T06:13:12.669Z,0.95
2023-01-09T06:15:39.420Z,0.70
2023-01-09T06:18:06.017Z,1.05
2023-01-09T06:20:32.591Z,1.13
2023-01-09T06:22:59.074Z,0.73
2023-01-09T06:25:25.697Z,0.75
2023-01-09T06:27:52.249Z,0.60
2023-01-09T06:30:20.097Z,0.63
2023-01-09T06:32:50.945Z,0.60
2023-01-09T06:35:17.735Z,0.70
2023-01-09T06:37:44.293Z,0.75
2023-01-09T06:40:11.347Z,0.70
2023-01-09T06:42:37.831Z,0.60
2023-01-09T06:45:04.909Z,0.77
2023-01-09T06:47:31.387Z,0.52
2023-01-09T06:49:57.866Z,1.15
2023-01-09T06:52:24.410Z,0.85
2023-01-09T06:54:50.862Z,0.80
2023-01-09T06:57:17.375Z,0.32
2023-01-09T06:59:43.911Z,0.57
2023-01-09T07:02:21.915Z,1.10
2023-01-09T07:04:48.483Z,1.00
2023-01-09T07:07:15.273Z,0.52
2023-01-09T07:09:41.790Z,0.85
2023-01-09T07:12:08.326Z,0.60
2023-01-09T07:14:34.890Z,0.98
2023-01-09T07:17:01.410Z,0.70
2023-01-09T07:19:27.887Z,1.08
2023-01-09T07:21:54.362Z,0.73
2023-01-09T07:24:20.935Z,1.35
2023-01-09T07:26:47.434Z,0.98
2023-01-09T07:29:14.037Z,1.08
2023-01-09T07:31:40.573Z,0.70
2023-01-09T07:34:07.145Z,0.80
2023-01-09T07:36:33.657Z,0.95
2023-01-09T07:39:00.190Z,0.60
2023-01-09T07:41:26.689Z,0.50
2023-01-09T07:43:53.171Z,0.60
2023-01-09T07:46:19.722Z,0.60
2023-01-09T07:48:46.270Z,0.63
2023-01-09T07:51:12.822Z,0.88
2023-01-09T07:53:39.332Z,0.95
2023-01-09T07:56:06.029Z,0.40
2023-01-09T07:58:32.500Z,0.90
2023-01-09T08:00:59.085Z,0.88
2023-01-09T08:03:25.630Z,1.10
2023-01-09T08:05:52.163Z,0.50
2023-01-09T08:08:18.724Z,0.98
2023-01-09T08:10:45.196Z,0.50
2023-01-09T08:13:11.702Z,0.88
2023-01-09T08:15:38.275Z,0.75
2023-01-09T08:18:04.825Z,0.82
2023-01-09T08:20:35.403Z,0.95
2023-01-09T08:23:01.982Z,0.60
2023-01-09T08:25:29.398Z,0.80
2023-01-09T08:27:55.951Z,0.95
2023-01-09T08:30:22.475Z,0.85
2023-01-09T08:32:53.343Z,1.30
2023-01-09T08:35:20.721Z,1.20
2023-01-09T08:37:48.422Z,0.60
2023-01-09T08:40:16.342Z,1.00
2023-01-09T08:42:43.164Z,0.43
2023-01-09T08:45:11.784Z,0.55
2023-01-09T08:47:38.548Z,0.70
2023-01-09T08:50:05.808Z,0.65
2023-01-09T08:52:32.357Z,0.43
2023-01-09T08:54:59.049Z,0.80
2023-01-09T08:57:25.567Z,0.45
2023-01-09T08:59:52.124Z,0.60
2023-01-09T09:02:18.598Z,0.85
2023-01-09T09:04:45.062Z,0.40
2023-01-09T09:07:11.563Z,0.50
2023-01-09T09:09:38.066Z,0.45
2023-01-09T09:12:04.907Z,0.50
2023-01-09T09:14:31.514Z,0.50
2023-01-09T09:16:58.241Z,0.20
2023-01-09T09:19:24.724Z,1.10
2023-01-09T09:21:51.262Z,0.63
2023-01-09T09:24:17.805Z,0.35
2023-01-09T09:26:44.774Z,0.60
2023-01-09T09:29:11.687Z,0.70
2023-01-09T09:31:38.795Z,0.77
2023-01-09T09:34:06.217Z,1.02
2023-01-09T09:36:33.069Z,0.50
2023-01-09T09:38:59.679Z,0.63
2023-01-09T09:41:52.385Z,0.52
2023-01-09T09:45:00.524Z,0.80
2023-01-09T09:47:38.778Z,0.63
2023-01-09T09:50:11.396Z,0.52
2023-01-09T09:52:43.689Z,0.70
2023-01-09T09:55:28.619Z,0.50
2023-01-09T09:57:58.252Z,0.70
2023-01-09T10:00:25.391Z,1.25
2023-01-09T10:03:00.698Z,0.68
2023-01-09T10:05:57.430Z,0.75
2023-01-09T10:08:42.115Z,0.60
2023-01-09T10:11:18.781Z,1.25
2023-01-09T10:13:45.285Z,0.77
2023-01-09T10:16:20.828Z,0.93
2023-01-09T10:19:00.730Z,0.47
2023-01-09T10:21:54.907Z,0.38
2023-01-09T10:24:36.321Z,0.40
2023-01-09T10:27:16.639Z,0.55
2023-01-09T10:30:08.751Z,0.70
2023-01-09T10:32:46.632Z,0.85
2023-01-09T10:35:57.597Z,0.55
2023-01-09T10:38:31.428Z,0.30
2023-01-09T10:41:31.240Z,0.47
2023-01-09T10:44:07.084Z,0.50
2023-01-09T10:46:48.487Z,0.63
2023-01-09T10:49:17.790Z,0.60
2023-01-09T10:51:48.378Z,0.68
2023-01-09T10:54:18.002Z,0.63
2023-01-09T10:57:13.141Z,0.60
2023-01-09T10:59:41.462Z,0.47
2023-01-09T11:02:37.186Z,0.60
2023-01-09T11:05:03.845Z,0.65
2023-01-09T11:07:37.839Z,0.32
2023-01-09T11:10:10.618Z,0.40
2023-01-09T11:12:37.549Z,0.50
2023-01-09T11:15:22.183Z,0.45
2023-01-09T11:17:51.385Z,0.80
2023-01-09T11:20:19.575Z,0.35
2023-01-09T11:22:51.921Z,0.40
2023-01-09T11:25:21.892Z,0.52
2023-01-09T11:28:05.767Z,0.32
2023-01-09T11:30:37.517Z,0.30
2023-01-09T11:33:15.778Z,0.55
2023-01-09T11:36:00.369Z,0.30
2023-01-09T11:38:27.649Z,0.30
2023-01-09T11:41:00.355Z,0.25
2023-01-09T11:43:44.650Z,0.63
2023-01-09T11:46:31.472Z,0.40
2023-01-09T11:48:59.552Z,0.50
2023-01-09T11:51:34.320Z,0.28
2023-01-09T11:54:28.587Z,0.40
2023-01-09T11:56:55.745Z,0.40
2023-01-09T11:59:26.357Z,0.40
2023-01-09T12:02:22.787Z,0.50
2023-01-09T12:05:14.663Z,0.70
2023-01-09T12:07:50.795Z,0.60
2023-01-09T12:10:43.938Z,0.60
2023-01-09T12:13:38.474Z,0.73
2023-01-09T12:16:07.732Z,1.15
2023-01-09T12:19:00.770Z,0.98
2023-01-09T12:21:35.553Z,1.00
2023-01-09T12:24:17.403Z,0.77
2023-01-09T12:29:44.773Z,0.65
2023-01-09T12:32:48.641Z,0.75
2023-01-09T12:35:31.310Z,0.73
2023-01-09T12:38:05.514Z,0.80
2023-01-09T12:40:41.340Z,0.73
2023-01-09T12:43:23.907Z,0.77
2023-01-09T12:46:15.698Z,1.25
2023-01-09T12:49:19.722Z,0.77
2023-01-09T12:51:57.422Z,0.93
2023-01-09T12:54:41.861Z,1.40
2023-01-09T12:57:30.572Z,0.60
2023-01-09T13:00:21.856Z,0.80
2023-01-09T13:03:24.927Z,0.80
2023-01-09T13:05:53.012Z,1.05
2023-01-09T13:08:31.680Z,0.50
2023-01-09T13:11:19.955Z,0.80
2023-01-09T13:13:55.605Z,0.80
2023-01-09T13:16:36.013Z,0.60
2023-01-09T13:19:15.973Z,0.82
2023-01-09T13:21:43.143Z,0.50
2023-01-09T13:24:29.893Z,0.73
2023-01-09T13:27:07.058Z,0.90
2023-01-09T13:29:39.933Z,0.60
2023-01-09T13:32:28.096Z,0.80
2023-01-09T13:34:56.201Z,0.70
2023-01-09T13:37:26.726Z,1.00
2023-01-09T13:40:27.480Z,0.60
2023-01-09T13:43:02.929Z,0.90
2023-01-09T13:45:32.550Z,0.85
2023-01-09T13:48:11.158Z,0.80
2023-01-09T13:50:42.193Z,0.80
2023-01-09T13:53:17.840Z,0.80
2023-01-09T13:55:59.586Z,0.85
2023-01-09T13:58:35.773Z,1.08
2023-01-09T14:03:37.567Z,1.00
2023-01-09T14:06:16.133Z,1.20
2023-01-09T14:08:44.381Z,1.67
2023-01-09T14:11:18.938Z,1.25
2023-01-09T14:13:46.632Z,0.80
2023-01-09T14:16:25.075Z,1.20
2023-01-09T14:19:18.015Z,1.17
2023-01-09T14:21:49.390Z,0.95
2023-01-09T14:24:23.287Z,1.00
2023-01-09T14:26:57.084Z,1.10
2023-01-09T14:29:38.685Z,0.82
2023-01-09T14:32:28.032Z,0.77
2023-01-09T14:35:09.008Z,1.10
2023-01-09T14:37:39.423Z,1.00
2023-01-09T14:40:19.282Z,1.17
2023-01-09T14:42:48.493Z,1.20
2023-01-09T14:45:19.335Z,1.30
2023-01-09T14:47:51.385Z,1.20
2023-01-09T14:50:36.640Z,0.95
2023-01-09T14:53:33.460Z,1.17
2023-01-09T14:56:06.188Z,1.15
2023-01-09T14:58:34.676Z,1.80
2023-01-09T15:01:10.579Z,1.40
2023-01-09T15:06:10.236Z,1.10
2023-01-09T15:08:37.041Z,1.35
2023-01-09T15:11:03.655Z,1.55
2023-01-09T15:13:37.432Z,1.48
2023-01-09T15:16:14.335Z,1.52
2023-01-09T15:18:42.893Z,1.20
2023-01-09T15:21:21.395Z,1.67
2023-01-09T15:23:47.934Z,1.23
2023-01-09T15:26:25.542Z,1.02
2023-01-09T15:28:54.111Z,1.65
2023-01-09T15:31:23.492Z,1.65
2023-01-09T15:33:53.769Z,1.40
2023-01-09T15:36:25.970Z,1.60
2023-01-09T15:38:53.907Z,1.42
2023-01-09T15:41:30.318Z,1.27
2023-01-09T15:43:56.937Z,1.88
2023-01-09T15:46:24.636Z,1.80
2023-01-09T15:48:53.873Z,1.60
2023-01-09T15:51:21.011Z,1.33
2023-01-09T15:53:48.506Z,1.00
2023-01-09T15:56:18.128Z,1.60
2023-01-09T15:58:47.088Z,0.90
2023-01-09T16:01:28.398Z,1.20
2023-01-09T16:03:59.656Z,1.15
2023-01-09T16:06:27.051Z,1.48
2023-01-09T16:08:54.343Z,2.05
2023-01-09T16:11:45.426Z,1.73
2023-01-09T16:14:22.013Z,7.85
2023-01-09T16:16:51.374Z,5.10
2023-01-09T16:19:48.713Z,3.90
2023-01-09T16:22:27.116Z,13.35
2023-01-09T16:24:55.274Z,9.40
2023-01-09T16:27:30.118Z,5.00
2023-01-09T16:29:59.828Z,4.45
2023-01-09T16:32:45.636Z,6.53
2023-01-09T16:35:19.807Z,2.42
2023-01-09T16:37:46.934Z,5.70
2023-01-09T16:40:16.543Z,4.13
2023-01-09T16:42:47.551Z,3.03
2023-01-09T16:45:14.106Z,12.90
2023-01-09T16:47:40.567Z,5.75
2023-01-09T16:50:11.106Z,3.92
2023-01-09T16:52:37.722Z,3.80
2023-01-09T16:55:04.745Z,1.60
2023-01-09T16:57:32.295Z,1.55
2023-01-09T16:59:58.883Z,1.75
2023-01-09T17:02:26.238Z,3.92
2023-01-09T17:04:53.470Z,1.95
2023-01-09T17:07:22.055Z,2.22
2023-01-09T17:09:48.573Z,2.42
2023-01-09T17:12:20.945Z,2.90
2023-01-09T17:14:48.238Z,2.17
2023-01-09T17:17:18.625Z,2.47
2023-01-09T17:19:45.197Z,2.35
2023-01-09T17:22:12.025Z,2.42
2023-01-09T17:24:38.728Z,2.10
2023-01-09T17:27:05.483Z,1.85
2023-01-09T17:29:34.185Z,2.67
2023-01-09T17:32:01.250Z,2.65
2023-01-09T17:34:27.967Z,2.47
2023-01-09T17:36:54.490Z,2.85
2023-01-09T17:39:21.715Z,3.20
2023-01-09T17:41:48.560Z,3.30
2023-01-09T17:44:15.369Z,2.10
2023-01-09T17:46:43.635Z,2.10
2023-01-09T17:49:16.520Z,2.13
2023-01-09T17:51:43.175Z,2.35
2023-01-09T17:54:10.041Z,2.47
2023-01-09T17:56:39.170Z,1.98
2023-01-09T17:59:05.776Z,1.60
2023-01-09T18:01:32.388Z,2.42
2023-01-09T18:03:58.965Z,2.03
2023-01-09T18:06:25.529Z,2.63
2023-01-09T18:08:52.070Z,2.40
2023-01-09T18:11:21.369Z,1.42
2023-01-09T18:13:49.794Z,2.60
2023-01-09T18:16:18.835Z,2.60
2023-01-09T18:18:45.881Z,2.10
2023-01-09T18:21:17.175Z,2.22
2023-01-09T18:23:44.118Z,2.42
2023-01-09T18:26:11.586Z,2.30
2023-01-09T18:28:39.020Z,1.35
2023-01-09T18:31:06.088Z,5.10
2023-01-09T18:33:32.846Z,3.55
2023-01-09T18:36:09.498Z,2.45
2023-01-09T18:38:36.823Z,2.33
2023-01-09T18:41:04.829Z,2.47
2023-01-09T18:43:32.049Z,2.47
2023-01-09T18:45:58.703Z,2.90
2023-01-09T18:48:25.762Z,1.70
2023-01-09T18:51:05.520Z,2.83
2023-01-09T18:53:34.186Z,2.70
2023-01-09T18:56:04.895Z,2.72
2023-01-09T18:58:34.025Z,3.45
2023-01-09T19:01:01.431Z,3.17
2023-01-09T19:03:28.982Z,2.45
2023-01-09T19:05:59.920Z,2.85
2023-01-09T19:08:32.872Z,2.20
2023-01-09T19:10:59.842Z,2.67
2023-01-09T19:13:31.854Z,1.95
2023-01-09T19:15:59.131Z,2.13
2023-01-09T19:18:26.386Z,2.97
2023-01-09T19:20:54.364Z,2.67
2023-01-09T19:23:21.369Z,2.72
2023-01-09T19:25:47.967Z,3.55
2023-01-09T19:28:14.542Z,2.50
2023-01-09T19:30:42.522Z,2.65
2023-01-09T19:33:11.188Z,3.30
2023-01-09T19:35:37.737Z,2.42
2023-01-09T19:38:04.510Z,3.25
2023-01-09T19:40:31.495Z,2.33
2023-01-09T19:42:58.552Z,2.67
2023-01-09T19:45:25.108Z,2.72
2023-01-09T19:47:51.658Z,2.85
2023-01-09T19:50:18.992Z,2.33
2023-01-09T19:52:45.845Z,1.92
2023-01-09T19:55:13.887Z,2.40
2023-01-09T19:57:43.975Z,1.88
2023-01-09T20:00:30.852Z,1.80
2023-01-09T20:02:57.432Z,1.40
2023-01-09T20:05:25.010Z,1.73
2023-01-09T20:07:55.367Z,1.50
2023-01-09T20:10:22.321Z,1.85
2023-01-09T20:12:48.826Z,1.80
2023-01-09T20:15:15.458Z,1.55
2023-01-09T20:17:42.185Z,2.90
2023-01-09T20:20:09.615Z,3.17
2023-01-09T20:22:36.313Z,2.50
2023-01-09T20:25:03.007Z,2.60
2023-01-09T20:27:29.594Z,2.67
2023-01-09T20:29:56.263Z,2.67
2023-01-09T20:32:22.960Z,2.83
2023-01-09T20:34:49.735Z,3.05
2023-01-09T20:37:16.513Z,2.90
2023-01-09T20:39:43.185Z,3.85
2023-01-09T20:42:09.859Z,3.45
2023-01-09T20:44:36.642Z,2.72
2023-01-09T20:47:03.253Z,2.70
2023-01-09T20:49:29.870Z,2.65
2023-01-09T20:51:56.659Z,2.53
2023-01-09T20:54:23.415Z,2.58
2023-01-09T20:56:50.569Z,2.53
2023-01-09T20:59:18.959Z,3.58
2023-01-09T21:01:45.747Z,3.78
2023-01-09T21:04:12.537Z,2.92
2023-01-09T21:06:39.383Z,2.65
2023-01-09T21:09:06.680Z,3.08
2023-01-09T21:11:33.723Z,3.08
2023-01-09T21:14:00.309Z,2.70
2023-01-09T21:16:26.944Z,3.08
2023-01-09T21:18:54.127Z,2.95
2023-01-09T21:21:23.458Z,2.88
2023-01-09T21:23:55.558Z,3.45
2023-01-09T21:26:24.350Z,2.28
2023-01-09T21:28:52.443Z,2.85
2023-01-09T21:31:20.955Z,2.88
2023-01-09T21:33:48.271Z,2.20
2023-01-09T21:36:15.690Z,2.90
2023-01-09T21:38:42.584Z,2.63
2023-01-09T21:41:09.648Z,2.33
2023-01-09T21:43:36.304Z,2.03
2023-01-09T21:46:03.062Z,2.97
2023-01-09T21:48:30.692Z,2.70
2023-01-09T21:51:02.512Z,2.17
2023-01-09T21:53:29.562Z,2.70
2023-01-09T21:55:56.208Z,2.65
2023-01-09T21:58:22.819Z,3.50
2023-01-09T22:00:49.625Z,2.83
2023-01-09T22:03:16.920Z,2.92
2023-01-09T22:05:43.558Z,3.75
2023-01-09T22:08:10.258Z,6.28
2023-01-09T22:10:36.983Z,3.85
2023-01-09T22:13:03.616Z,9.52
2023-01-09T22:15:30.245Z,3.35
2023-01-09T22:17:56.902Z,2.95
2023-01-09T22:20:23.567Z,2.63
2023-01-09T22:22:50.260Z,3.30
2023-01-09T22:25:16.873Z,3.42
2023-01-09T22:27:43.448Z,2.55
2023-01-09T22:30:10.587Z,3.40
2023-01-09T22:32:37.326Z,2.25
2023-01-09T22:35:04.221Z,2.60
2023-01-09T22:37:30.714Z,3.25
2023-01-09T22:39:57.347Z,3.38
2023-01-09T22:42:23.884Z,3.55
2023-01-09T22:44:50.416Z,2.72
2023-01-09T22:47:17.083Z,2.80
2023-01-09T22:49:52.741Z,3.05
2023-01-09T22:52:20.736Z,2.83
2023-01-09T22:54:47.997Z,2.25
2023-01-09T22:57:14.598Z,2.60
2023-01-09T22:59:41.220Z,2.88
2023-01-09T23:02:07.953Z,2.55
2023-01-09T23:04:34.620Z,4.07
2023-01-09T23:07:01.131Z,2.40
2023-01-09T23:09:27.896Z,2.95
2023-01-09T23:11:54.512Z,2.17
2023-01-09T23:14:21.612Z,2.40
2023-01-09T23:16:48.154Z,2.53
2023-01-09T23:19:15.316Z,1.60
2023-01-09T23:21:43.010Z,2.30
2023-01-09T23:24:09.753Z,1.90
2023-01-09T23:26:37.009Z,1.73
2023-01-09T23:29:05.111Z,1.75
2023-01-09T23:31:34.001Z,1.52
2023-01-09T23:34:01.171Z,1.33
2023-01-09T23:36:27.864Z,1.52
2023-01-09T23:38:54.464Z,1.48
2023-01-09T23:41:20.992Z,0.85
2023-01-09T23:43:47.548Z,1.60
2023-01-09T23:46:14.183Z,1.30
2023-01-09T23:48:40.967Z,1.23
2023-01-09T23:51:07.572Z,1.30
2023-01-09T23:53:34.143Z,1.15
2023-01-09T23:56:01.070Z,1.67
2023-01-09T23:58:27.724Z,1.50
